Time;durP1;ratioP1;P1;durP2;ratioP2;P2;SDS_P1;SDS_P2;PMS_P1;PMS_P2;Temp;Humidity;BMP_temperature;BMP_pressure;BME280_temperature;BME280_humidity;BME280_pressure;Samples;Min_cycle;Max_cycle;Signal;HPM_P1;HPM_P2
2022/07/02 00:00:37;;;;;;;3.33;1.90;;;;;;;24.99;58.51;99681.56;5032487;28;20060;-92
2022/07/02 00:03:04;;;;;;;4.55;2.10;;;;;;;24.94;58.51;99689.13;5032494;28;20068;-91
2022/07/02 00:05:32;;;;;;;3.75;2.28;;;;;;;24.95;58.28;99695.41;5029665;28;20041;-91
2022/07/02 00:07:58;;;;;;;3.58;2.50;;;;;;;24.82;59.13;99677.44;5031599;28;20034;-92
2022/07/02 00:10:25;;;;;;;5.80;3.22;;;;;;;24.99;59.79;99705.84;5030557;28;20025;-92
2022/07/02 00:12:50;;;;;;;3.67;2.35;;;;;;;24.91;60.09;99702.84;5040159;28;20045;-91
2022/07/02 00:15:16;;;;;;;3.37;2.20;;;;;;;24.93;59.96;99706.31;4977426;28;1538782;-91
2022/07/02 00:17:44;;;;;;;4.32;2.20;;;;;;;24.98;59.62;99714.06;5032878;28;20033;-91
2022/07/02 00:20:11;;;;;;;2.83;1.60;;;;;;;24.80;59.23;99690.16;5033693;28;20061;-87
2022/07/02 00:22:38;;;;;;;7.75;2.92;;;;;;;24.71;58.83;99680.03;5032218;28;20108;-91
2022/07/02 00:25:04;;;;;;;4.57;2.00;;;;;;;24.87;58.29;99692.38;5031216;28;20061;-89
2022/07/02 00:27:30;;;;;;;4.22;2.42;;;;;;;24.91;59.37;99718.16;5032767;28;20495;-89
2022/07/02 00:30:01;;;;;;;4.00;2.22;;;;;;;25.00;59.79;99722.88;5031966;28;20044;-89
2022/07/02 00:32:29;;;;;;;3.42;2.30;;;;;;;24.76;59.68;99680.59;5031553;28;20037;-90
2022/07/02 00:34:57;;;;;;;3.22;2.00;;;;;;;24.60;59.91;99680.84;5032248;28;20030;-89
2022/07/02 00:37:25;;;;;;;3.40;2.45;;;;;;;24.60;60.45;99709.66;5032734;28;20052;-89
2022/07/02 00:39:50;;;;;;;3.80;2.40;;;;;;;24.54;59.73;99720.84;5031667;28;20037;-89
2022/07/02 00:42:17;;;;;;;3.30;2.35;;;;;;;24.41;60.29;99729.81;5031217;28;20072;-89
2022/07/02 00:44:45;;;;;;;5.65;2.33;;;;;;;24.12;61.39;99689.66;5032711;28;20056;-88
2022/07/02 00:47:13;;;;;;;3.33;2.25;;;;;;;24.40;61.65;99716.47;5031565;28;20029;-89
2022/07/02 00:49:38;;;;;;;3.50;1.77;;;;;;;24.35;61.71;99703.31;5032398;28;20029;-90
2022/07/02 00:52:06;;;;;;;2.67;1.88;;;;;;;24.35;61.22;99716.78;5031104;28;20087;-90
2022/07/02 00:54:31;;;;;;;3.17;1.83;;;;;;;24.63;60.14;99744.47;5031308;28;20037;-91
2022/07/02 00:56:57;;;;;;;4.22;2.40;;;;;;;24.28;61.15;99713.69;5032027;28;20035;-90
2022/07/02 00:59:25;;;;;;;3.05;2.05;;;;;;;24.27;61.08;99681.44;5030432;28;20037;-90
2022/07/02 01:01:51;;;;;;;3.92;2.45;;;;;;;24.42;60.00;99701.91;5031114;28;20042;-91
2022/07/02 01:04:18;;;;;;;3.60;2.45;;;;;;;24.04;61.60;99685.81;5029667;28;20025;-90
2022/07/02 01:06:44;;;;;;;3.80;2.30;;;;;;;23.91;62.08;99705.53;5031254;28;20513;-90
2022/07/02 01:11:59;;;;;;;4.47;2.65;;;;;;;23.72;62.56;99711.28;5031312;28;20080;-91
2022/07/02 01:14:25;;;;;;;3.70;2.38;;;;;;;23.71;62.79;99709.56;5041039;28;20503;-91
2022/07/02 01:16:51;;;;;;;3.55;2.80;;;;;;;23.94;62.26;99720.59;5049931;28;20052;-91
2022/07/02 01:19:18;;;;;;;3.60;2.80;;;;;;;23.60;62.17;99682.50;5034244;28;20025;-91
2022/07/02 01:22:15;;;;;;;3.60;2.30;;;;;;;24.08;62.16;99741.16;5050960;28;20098;-89
2022/07/02 01:24:42;;;;;;;3.83;2.42;;;;;;;23.88;62.31;99715.63;5052320;28;20052;-90
2022/07/02 01:27:08;;;;;;;4.80;2.78;;;;;;;23.58;63.69;99706.00;5033044;28;20119;-90
2022/07/02 01:29:34;;;;;;;4.75;2.72;;;;;;;23.56;63.16;99689.09;5033888;28;20488;-92
2022/07/02 01:31:59;;;;;;;3.88;2.35;;;;;;;23.70;62.99;99701.59;5033979;28;20483;-93
2022/07/02 01:34:25;;;;;;;4.47;2.72;;;;;;;23.85;62.54;99703.25;5032858;28;20032;-91
2022/07/02 01:36:50;;;;;;;4.05;2.80;;;;;;;24.05;63.11;99744.06;5033884;28;20137;-93
2022/07/02 01:39:23;;;;;;;9.68;4.40;;;;;;;23.99;63.27;99739.13;5032784;28;20033;-91
2022/07/02 01:41:48;;;;;;;5.68;3.10;;;;;;;23.80;63.13;99715.28;5033760;28;20533;-91
2022/07/02 01:44:14;;;;;;;3.72;2.40;;;;;;;23.70;63.15;99702.47;5051127;28;20052;-92
2022/07/02 01:46:40;;;;;;;4.88;2.88;;;;;;;23.89;63.06;99714.66;5033934;28;20119;-92
2022/07/02 01:49:06;;;;;;;4.53;2.25;;;;;;;23.99;63.02;99731.03;5050419;28;20041;-93
2022/07/02 01:51:32;;;;;;;5.03;3.47;;;;;;;23.66;62.93;99692.84;5051574;28;20025;-93
2022/07/02 01:53:57;;;;;;;4.35;2.78;;;;;;;23.55;62.99;99682.84;5033065;28;20045;-92
2022/07/02 01:56:23;;;;;;;4.85;2.75;;;;;;;23.48;63.67;99700.41;5033083;28;20024;-91
2022/07/02 01:58:48;;;;;;;4.43;2.45;;;;;;;23.36;64.08;99696.72;5051564;28;20029;-91
2022/07/02 02:01:14;;;;;;;3.40;2.25;;;;;;;23.37;64.65;99705.63;5051639;28;20032;-93
2022/07/02 02:03:40;;;;;;;3.78;2.45;;;;;;;23.36;64.60;99695.84;5051175;28;20082;-93
2022/07/02 02:06:05;;;;;;;5.40;3.13;;;;;;;23.47;64.61;99703.19;5033543;28;20037;-92
2022/07/02 02:08:31;;;;;;;5.65;3.47;;;;;;;23.35;65.27;99694.97;5051355;28;20032;-91
2022/07/02 02:10:56;;;;;;;5.10;3.00;;;;;;;23.32;65.26;99695.19;5050945;28;20087;-91
2022/07/02 02:13:22;;;;;;;3.95;2.80;;;;;;;23.34;65.68;99725.56;5050918;28;20479;-91
2022/07/02 02:15:47;;;;;;;4.65;3.22;;;;;;;23.27;65.51;99707.25;5050974;28;20040;-90
2022/07/02 02:18:13;;;;;;;5.43;3.85;;;;;;;23.04;64.92;99697.00;5051256;28;20140;-90
2022/07/02 02:20:39;;;;;;;6.78;3.80;;;;;;;23.11;64.22;99713.66;5033008;28;20563;-89
2022/07/02 02:23:05;;;;;;;4.20;3.03;;;;;;;22.88;65.21;99731.28;5050544;28;20040;-90
2022/07/02 02:25:31;;;;;;;5.72;3.88;;;;;;;22.74;65.06;99716.06;5050743;28;20029;-90
2022/07/02 02:27:58;;;;;;;9.68;3.42;;;;;;;22.51;66.16;99706.78;5050683;28;20400;-91
2022/07/02 02:30:24;;;;;;;10.30;5.93;;;;;;;22.67;65.96;99718.25;5032874;28;20033;-90
2022/07/02 02:32:49;;;;;;;6.85;3.30;;;;;;;22.53;66.07;99704.84;5033052;28;20087;-89
2022/07/02 02:35:15;;;;;;;7.28;4.18;;;;;;;22.44;66.47;99702.75;5051144;28;20033;-90
2022/07/02 02:37:40;;;;;;;5.20;4.05;;;;;;;22.62;66.24;99715.00;5050606;28;20487;-91
2022/07/02 02:40:07;;;;;;;4.50;3.28;;;;;;;22.66;65.22;99719.25;5052887;28;20036;-90
2022/07/02 02:42:32;;;;;;;9.68;3.92;;;;;;;22.45;65.81;99683.00;5061499;28;20040;-91
2022/07/02 02:44:58;;;;;;;5.35;3.75;;;;;;;22.89;65.37;99741.06;5061132;28;20422;-90
2022/07/02 02:47:23;;;;;;;5.57;3.45;;;;;;;22.57;65.53;99705.50;5052336;28;20059;-91
2022/07/02 02:49:49;;;;;;;5.68;3.85;;;;;;;22.88;65.39;99750.13;5031866;28;20047;-91
2022/07/02 02:52:15;;;;;;;15.45;3.97;;;;;;;22.64;65.84;99720.28;5049497;28;20107;-91
2022/07/02 02:54:40;;;;;;;5.75;3.92;;;;;;;22.51;65.89;99706.78;5050663;28;20505;-90
2022/07/02 02:57:05;;;;;;;5.65;4.28;;;;;;;22.78;66.06;99757.88;5049629;28;20483;-91
2022/07/02 02:59:31;;;;;;;7.88;5.25;;;;;;;22.69;66.32;99736.97;5051019;28;20029;-92
2022/07/02 03:01:56;;;;;;;5.25;3.70;;;;;;;22.75;65.97;99731.19;5032787;28;20087;-93
2022/07/02 03:04:22;;;;;;;3.97;2.50;;;;;;;22.71;65.76;99719.78;5031924;28;20535;-90
2022/07/02 03:06:47;;;;;;;8.80;5.07;;;;;;;22.78;65.51;99727.47;5033034;28;20029;-91
2022/07/02 03:09:13;;;;;;;6.53;5.13;;;;;;;22.95;65.27;99742.50;5049928;28;20446;-91
2022/07/02 03:11:38;;;;;;;5.07;3.85;;;;;;;22.93;65.73;99742.59;5050395;28;20090;-91
2022/07/02 03:14:04;;;;;;;6.57;3.53;;;;;;;22.92;65.97;99737.31;5030994;28;20049;-93
2022/07/02 03:16:31;;;;;;;4.97;3.42;;;;;;;22.99;65.92;99768.22;5053972;28;20029;-91
2022/07/02 03:18:56;;;;;;;4.75;2.90;;;;;;;22.87;65.65;99733.09;5054072;28;20043;-90
2022/07/02 03:21:22;;;;;;;4.93;3.25;;;;;;;23.14;65.36;99771.75;5056200;28;20483;-90
2022/07/02 03:23:47;;;;;;;5.53;3.05;;;;;;;23.01;65.39;99751.00;5063449;28;20103;-90
2022/07/02 03:26:13;;;;;;;8.45;4.75;;;;;;;23.15;65.48;99762.72;5063327;28;20029;-89
2022/07/02 03:28:38;;;;;;;5.72;3.10;;;;;;;23.09;65.42;99757.75;5068176;28;20064;-91
2022/07/02 03:31:04;;;;;;;6.45;3.92;;;;;;;23.07;64.92;99734.47;5054328;28;20029;-91
2022/07/02 03:33:29;;;;;;;5.93;3.97;;;;;;;23.29;64.29;99768.03;5054090;28;20499;-94
2022/07/02 03:35:55;;;;;;;5.15;3.33;;;;;;;23.26;64.69;99737.81;5035148;28;20519;-91
2022/07/02 03:38:20;;;;;;;6.05;4.00;;;;;;;23.37;64.95;99749.56;5054370;28;20037;-90
2022/07/02 03:40:46;;;;;;;4.07;3.10;;;;;;;23.57;64.46;99766.19;5053402;28;20498;-91
2022/07/02 03:43:11;;;;;;;4.90;3.42;;;;;;;23.59;64.50;99766.97;5034263;28;20052;-92
2022/07/02 03:45:37;;;;;;;5.20;3.17;;;;;;;23.41;65.00;99743.00;5035684;28;20029;-91
2022/07/02 03:48:03;;;;;;;4.47;3.28;;;;;;;23.73;64.99;99795.66;5052676;28;20028;-90
2022/07/02 03:50:29;;;;;;;3.83;2.55;;;;;;;23.92;64.39;99796.13;5053761;28;20029;-92
2022/07/02 03:52:54;;;;;;;4.28;2.80;;;;;;;23.85;62.83;99811.00;5035112;28;20059;-89
2022/07/02 03:55:20;;;;;;;5.07;3.58;;;;;;;23.76;62.88;99798.97;5053383;28;20039;-91
2022/07/02 03:57:45;;;;;;;9.57;3.42;;;;;;;23.93;63.20;99800.53;5053923;28;20099;-92
2022/07/02 04:00:11;;;;;;;5.55;4.15;;;;;;;24.05;63.47;99785.38;5034407;28;20565;-90
2022/07/02 04:02:36;;;;;;;4.88;3.70;;;;;;;24.01;63.70;99759.59;5035711;28;20116;-91
2022/07/02 04:05:02;;;;;;;9.18;4.65;;;;;;;24.14;63.20;99789.22;5035299;28;20094;-93
2022/07/02 04:07:28;;;;;;;6.22;3.97;;;;;;;23.98;62.50;99789.44;5053221;28;20460;-89
2022/07/02 04:09:53;;;;;;;5.82;3.55;;;;;;;23.41;62.53;99764.53;5034058;28;20099;-91
2022/07/02 04:12:18;;;;;;;5.63;3.60;;;;;;;23.80;62.67;99764.59;5053153;28;20029;-90
2022/07/02 04:14:44;;;;;;;5.45;3.65;;;;;;;23.73;60.75;99769.56;5052311;28;20052;-90
2022/07/02 04:17:09;;;;;;;5.53;3.72;;;;;;;23.91;61.42;99789.03;5035079;28;20102;-91
2022/07/02 04:19:35;;;;;;;5.20;3.30;;;;;;;23.64;60.98;99766.66;5052817;28;20079;-91
2022/07/02 04:22:01;;;;;;;5.75;4.18;;;;;;;23.72;61.28;99785.81;5034547;28;20110;-90
2022/07/02 04:24:29;;;;;;;8.15;4.50;;;;;;;24.08;60.57;99816.59;5052950;28;20111;-87
2022/07/02 04:26:55;;;;;;;6.28;4.05;;;;;;;24.01;60.37;99772.22;5052615;28;20025;-92
2022/07/02 04:29:21;;;;;;;5.10;3.58;;;;;;;24.16;60.58;99795.41;5035159;28;20037;-93
2022/07/02 04:31:46;;;;;;;7.50;4.30;;;;;;;23.96;61.54;99751.00;5034520;28;20070;-92
2022/07/02 04:34:12;;;;;;;5.90;4.20;;;;;;;24.10;61.13;99750.88;5035051;28;20487;-91
2022/07/02 04:36:39;;;;;;;3.72;2.78;;;;;;;24.63;60.47;99804.66;5030572;28;20049;-89
2022/07/02 04:39:05;;;;;;;6.88;3.65;;;;;;;24.28;61.34;99758.63;5014712;28;20095;-91
2022/07/02 04:41:30;;;;;;;6.05;4.78;;;;;;;24.21;62.85;99790.53;5014899;28;20033;-90
2022/07/02 04:43:56;;;;;;;5.75;3.97;;;;;;;24.47;61.65;99804.88;5038288;28;20067;-90
2022/07/02 04:46:21;;;;;;;5.18;3.80;;;;;;;24.46;61.31;99784.25;5034713;28;20813;-90
2022/07/02 04:48:47;;;;;;;6.20;3.95;;;;;;;24.65;61.70;99809.94;5034288;28;20482;-90
2022/07/02 04:51:12;;;;;;;5.03;3.28;;;;;;;24.71;60.49;99771.75;5052510;28;20033;-91
2022/07/02 04:53:38;;;;;;;5.63;4.10;;;;;;;24.99;60.93;99797.56;5052351;28;20517;-91
2022/07/02 04:56:03;;;;;;;5.80;3.85;;;;;;;25.20;59.90;99818.53;5034539;28;20037;-90
2022/07/02 04:58:29;;;;;;;5.60;4.10;;;;;;;25.26;58.59;99815.38;5034265;28;20128;-88
2022/07/02 05:00:54;;;;;;;5.13;3.15;;;;;;;25.48;58.02;99801.16;5034766;28;20033;-91
2022/07/02 05:03:20;;;;;;;5.55;3.72;;;;;;;25.93;57.21;99822.06;5051602;28;20033;-91
2022/07/02 05:05:46;;;;;;;6.93;3.53;;;;;;;26.04;58.81;99823.97;5034230;28;20483;-91
2022/07/02 05:08:11;;;;;;;5.13;3.40;;;;;;;25.97;58.19;99777.63;5034264;28;20040;-91
2022/07/02 05:10:37;;;;;;;6.85;4.05;;;;;;;26.16;57.97;99812.22;5052160;28;20028;-90
2022/07/02 05:13:04;;;;;;;5.85;3.65;;;;;;;26.25;57.73;99781.75;5051852;28;20061;-91
2022/07/02 05:15:30;;;;;;;6.57;4.43;;;;;;;26.93;56.16;99802.56;5052096;28;20044;-90
2022/07/02 05:17:55;;;;;;;5.60;3.28;;;;;;;27.22;55.02;99810.09;5052499;28;20037;-91
2022/07/02 05:20:21;;;;;;;6.13;3.88;;;;;;;27.23;56.32;99806.41;5052126;28;20082;-90
2022/07/02 05:22:46;;;;;;;7.30;4.95;;;;;;;27.05;56.00;99773.59;5033574;28;20554;-90
2022/07/02 05:25:12;;;;;;;5.10;3.60;;;;;;;27.40;54.31;99791.50;5034166;28;20200;-92
2022/07/02 05:27:37;;;;;;;7.80;5.55;;;;;;;27.40;53.89;99816.72;5033940;28;20028;-89
2022/07/02 05:30:03;;;;;;;5.75;4.60;;;;;;;27.56;53.91;99813.63;5051583;28;20028;-89
2022/07/02 05:32:29;;;;;;;6.30;2.95;;;;;;;27.90;52.81;99794.47;5051902;28;20021;-91
2022/07/02 05:34:54;;;;;;;5.88;4.05;;;;;;;28.57;51.25;99823.00;5051171;28;20075;-91
2022/07/02 05:37:20;;;;;;;7.00;4.40;;;;;;;28.50;51.73;99807.41;5050953;28;20040;-92
2022/07/02 05:39:45;;;;;;;8.30;5.32;;;;;;;28.85;50.43;99809.72;5051058;28;20035;-92
2022/07/02 05:42:11;;;;;;;7.47;5.03;;;;;;;29.11;50.72;99799.19;5033657;28;20423;-92
2022/07/02 05:44:36;;;;;;;8.40;4.85;;;;;;;29.10;49.75;99788.47;5050685;28;20033;-92
2022/07/02 05:47:02;;;;;;;7.65;5.22;;;;;;;29.23;49.41;99804.56;5051399;28;20033;-92
2022/07/02 05:49:27;;;;;;;9.65;5.55;;;;;;;29.67;48.06;99825.91;5033129;28;20033;-91
2022/07/02 05:51:53;;;;;;;7.55;5.40;;;;;;;29.78;48.63;99813.03;5050211;28;20491;-90
2022/07/02 05:54:19;;;;;;;7.50;5.55;;;;;;;29.64;47.82;99764.53;5050182;28;20037;-91
2022/07/02 05:56:45;;;;;;;8.48;5.68;;;;;;;29.77;47.72;99784.13;5049750;28;20060;-91
2022/07/02 05:59:11;;;;;;;7.80;5.85;;;;;;;29.63;47.79;99784.56;5051249;28;20063;-88
2022/07/02 06:01:36;;;;;;;8.35;5.75;;;;;;;30.00;46.02;99773.81;5051183;28;20079;-89
2022/07/02 06:04:02;;;;;;;9.50;8.13;;;;;;;30.15;45.71;99787.81;5051357;28;20029;-91
2022/07/02 06:09:11;;;;;;;8.40;7.32;;;;;;;30.48;45.00;99820.94;5051382;28;20056;-90
2022/07/02 06:11:37;;;;;;;10.18;7.53;;;;;;;30.52;44.71;99795.16;5033117;28;20511;-90
2022/07/02 06:14:02;;;;;;;10.23;7.63;;;;;;;30.83;43.97;99789.44;5050685;28;20052;-91
2022/07/02 06:16:29;;;;;;;9.65;8.30;;;;;;;31.31;43.01;99786.56;5051774;28;20035;-92
2022/07/02 06:18:55;;;;;;;12.77;8.18;;;;;;;31.17;44.08;99785.22;5050220;28;20033;-92
2022/07/02 06:21:21;;;;;;;9.52;7.35;;;;;;;31.31;43.35;99784.72;5050788;28;20029;-91
2022/07/02 06:23:46;;;;;;;10.23;8.02;;;;;;;30.94;43.36;99788.38;5051026;28;20491;-92
2022/07/02 06:26:12;;;;;;;7.05;5.32;;;;;;;30.83;45.83;99816.66;5051328;28;20033;-91
2022/07/02 06:28:37;;;;;;;7.47;5.55;;;;;;;31.20;43.29;99823.94;5032771;28;20111;-92
2022/07/02 06:31:03;;;;;;;6.20;4.47;;;;;;;31.39;42.11;99822.94;5051119;28;20483;-91
2022/07/02 06:33:29;;;;;;;7.53;4.22;;;;;;;31.83;39.90;99794.06;5050703;28;20067;-90
2022/07/02 06:35:55;;;;;;;7.57;5.47;;;;;;;31.99;41.39;99826.91;5032707;28;20056;-91
2022/07/02 06:38:21;;;;;;;6.60;4.35;;;;;;;32.59;39.93;99823.41;5050692;28;20116;-89
2022/07/02 06:40:46;;;;;;;6.60;3.97;;;;;;;31.88;42.22;99810.78;5051339;28;20120;-93
2022/07/02 06:43:12;;;;;;;4.93;3.58;;;;;;;32.13;39.90;99812.75;5032829;28;20028;-88
2022/07/02 06:45:39;;;;;;;5.93;3.65;;;;;;;32.54;39.26;99805.81;5050566;28;20061;-91
2022/07/02 06:48:04;;;;;;;6.90;3.67;;;;;;;32.59;39.16;99820.66;5049150;28;20495;-88
2022/07/02 06:50:30;;;;;;;7.45;4.20;;;;;;;32.11;40.70;99805.72;5052957;28;20075;-88
2022/07/02 06:52:55;;;;;;;6.15;3.88;;;;;;;32.62;37.92;99789.47;5054752;28;20040;-90
2022/07/02 06:55:21;;;;;;;6.97;3.95;;;;;;;32.83;38.41;99830.06;5055164;28;20091;-88
2022/07/02 06:57:50;;;;;;;6.50;4.35;;;;;;;32.80;38.79;99825.75;5053933;28;20036;-88
2022/07/02 07:00:16;;;;;;;6.25;4.00;;;;;;;33.07;38.60;99807.41;5053777;28;20067;-88
2022/07/02 07:02:42;;;;;;;6.47;4.00;;;;;;;33.17;37.24;99789.00;5054427;28;20465;-88
2022/07/02 07:05:08;;;;;;;6.65;3.45;;;;;;;33.70;38.09;99807.91;5054125;28;20496;-88
2022/07/02 07:07:34;;;;;;;5.38;4.10;;;;;;;33.38;37.05;99795.91;5054584;28;20032;-88
2022/07/02 07:10:00;;;;;;;6.20;3.72;;;;;;;32.96;38.37;99808.56;5054121;28;20028;-88
2022/07/02 07:12:26;;;;;;;4.88;3.40;;;;;;;32.56;41.14;99801.03;5054414;28;20418;-88
2022/07/02 07:14:51;;;;;;;5.75;4.32;;;;;;;32.57;38.55;99783.66;5053434;28;20075;-88
2022/07/02 07:17:17;;;;;;;6.78;4.10;;;;;;;32.32;38.95;99813.53;5053481;28;20028;-88
2022/07/02 07:19:42;;;;;;;6.18;3.88;;;;;;;32.71;39.11;99771.28;5053585;28;20033;-87
2022/07/02 07:22:09;;;;;;;7.20;3.88;;;;;;;32.09;39.32;99788.63;5053707;28;20025;-88
2022/07/02 07:24:34;;;;;;;5.45;3.60;;;;;;;32.72;39.30;99797.56;5054225;28;20166;-88
2022/07/02 07:27:00;;;;;;;5.30;4.13;;;;;;;32.98;42.12;99801.09;5053793;28;20108;-88
2022/07/02 07:29:25;;;;;;;7.18;4.45;;;;;;;33.23;38.34;99824.91;5054044;28;20029;-88
2022/07/02 07:31:51;;;;;;;6.65;5.15;;;;;;;33.23;41.51;99817.59;5054079;28;20033;-87
2022/07/02 07:34:16;;;;;;;5.72;3.55;;;;;;;32.76;38.15;99785.28;5053183;28;20539;-87
2022/07/02 07:36:42;;;;;;;9.40;5.43;;;;;;;32.08;40.49;99808.72;5054243;28;20021;-88
2022/07/02 07:39:08;;;;;;;5.95;4.65;;;;;;;32.96;41.63;99799.53;5053571;28;20067;-88
2022/07/02 07:41:33;;;;;;;6.25;3.80;;;;;;;33.44;38.35;99800.69;5053971;28;20041;-88
2022/07/02 07:44:00;;;;;;;5.80;3.85;;;;;;;33.52;36.52;99788.91;5052841;28;20033;-88
2022/07/02 07:46:25;;;;;;;5.32;3.63;;;;;;;32.98;38.76;99781.97;5053376;28;20033;-89
2022/07/02 07:48:51;;;;;;;5.38;3.83;;;;;;;33.46;40.11;99795.94;5053343;28;20040;-89
2022/07/02 07:51:17;;;;;;;4.30;3.13;;;;;;;33.73;37.49;99824.00;5054071;28;20120;-90
2022/07/02 07:53:43;;;;;;;5.18;3.55;;;;;;;33.83;37.62;99799.22;5052523;28;20037;-89
2022/07/02 07:56:09;;;;;;;4.78;3.17;;;;;;;34.67;36.49;99791.53;5035736;28;20542;-89
2022/07/02 07:58:35;;;;;;;5.05;4.03;;;;;;;34.41;38.21;99806.34;5053287;28;20108;-88
2022/07/02 08:01:01;;;;;;;4.85;3.35;;;;;;;33.99;37.94;99823.84;5052952;28;20116;-89
2022/07/02 08:03:26;;;;;;;5.30;3.85;;;;;;;33.42;39.90;99824.63;5053600;28;20036;-88
2022/07/02 08:05:55;;;;;;;4.80;3.90;;;;;;;34.16;36.40;99808.25;5053957;28;20071;-90
2022/07/02 08:08:22;;;;;;;5.28;3.78;;;;;;;33.84;37.04;99812.72;5053489;28;20056;-89
2022/07/02 08:10:47;;;;;;;5.57;4.05;;;;;;;34.09;36.67;99799.03;5035591;28;20481;-90
2022/07/02 08:13:13;;;;;;;6.78;4.60;;;;;;;34.04;35.96;99812.38;5054166;28;20036;-89
2022/07/02 08:15:38;;;;;;;9.07;4.45;;;;;;;34.20;37.44;99833.38;5035495;28;20045;-90
2022/07/02 08:18:04;;;;;;;6.32;4.07;;;;;;;34.62;34.30;99826.84;5040803;28;20029;-92
2022/07/02 08:20:29;;;;;;;8.32;4.07;;;;;;;34.61;35.97;99800.47;5033597;28;20055;-94
2022/07/02 08:22:55;;;;;;;5.57;4.05;;;;;;;34.56;34.06;99811.13;5033872;28;20026;-92
2022/07/02 08:25:20;;;;;;;8.88;4.55;;;;;;;34.54;35.35;99815.88;5033322;28;20470;-92
2022/07/02 08:27:46;;;;;;;7.18;4.90;;;;;;;34.89;36.75;99780.88;5032891;28;20033;-92
2022/07/02 08:30:12;;;;;;;6.35;4.10;;;;;;;35.72;35.44;99836.91;5032024;28;20060;-87
2022/07/02 08:32:39;;;;;;;5.53;3.72;;;;;;;35.82;35.63;99836.69;5033149;28;20033;-90
2022/07/02 08:35:05;;;;;;;7.32;3.92;;;;;;;35.93;33.67;99806.09;5031339;28;20037;-90
2022/07/02 08:37:31;;;;;;;6.80;4.53;;;;;;;35.93;35.00;99835.41;5033121;28;20029;-90
2022/07/02 08:39:56;;;;;;;6.00;4.15;;;;;;;36.08;32.58;99824.47;5032840;28;20392;-91
2022/07/02 08:42:27;;;;;;;10.85;9.82;;;;;;;35.77;34.20;99834.50;5031664;28;20032;-89
2022/07/02 08:44:56;;;;;;;13.60;9.23;;;;;;;35.93;33.65;99830.78;5032064;28;20064;-89
2022/07/02 08:47:23;;;;;;;6.38;5.03;;;;;;;35.74;33.78;99829.34;5032657;28;20030;-89
2022/07/02 08:49:51;;;;;;;5.78;4.03;;;;;;;35.93;34.79;99807.97;5032902;28;20040;-91
2022/07/02 08:52:18;;;;;;;6.38;4.70;;;;;;;35.91;35.71;99824.59;5031604;28;20037;-90
2022/07/02 08:54:44;;;;;;;7.10;4.32;;;;;;;35.76;33.73;99826.41;5031515;28;20063;-91
2022/07/02 08:57:11;;;;;;;5.22;3.95;;;;;;;35.88;32.79;99829.63;5035369;28;20551;-90
2022/07/02 08:59:37;;;;;;;4.68;3.78;;;;;;;35.78;32.58;99821.66;5039301;28;20035;-89
2022/07/02 09:02:03;;;;;;;5.90;3.90;;;;;;;35.82;32.69;99812.88;5040353;28;20054;-92
2022/07/02 09:04:30;;;;;;;5.32;3.70;;;;;;;35.68;33.84;99819.97;5032132;28;20551;-92
2022/07/02 09:06:59;;;;;;;5.45;4.15;;;;;;;35.53;33.07;99829.16;5032045;28;20038;-92
2022/07/02 09:09:28;;;;;;;5.63;4.22;;;;;;;36.02;35.07;99834.28;5030452;28;20037;-91
2022/07/02 09:11:56;;;;;;;7.00;5.32;;;;;;;36.34;34.80;99808.44;5030924;28;20026;-87
2022/07/02 09:14:22;;;;;;;6.20;4.60;;;;;;;36.56;33.86;99812.16;5040213;28;20045;-90
2022/07/02 09:16:48;;;;;;;5.75;4.20;;;;;;;36.52;32.03;99816.31;5051682;28;20114;-89
2022/07/02 09:19:15;;;;;;;6.88;5.03;;;;;;;37.08;31.53;99798.47;5052062;28;20032;-90
2022/07/02 09:21:48;;;;;;;6.88;5.00;;;;;;;37.44;32.70;99814.97;5051232;28;20120;-89
2022/07/02 09:24:15;;;;;;;6.63;4.55;;;;;;;37.05;32.81;99801.59;5052335;28;20033;-88
2022/07/02 09:26:41;;;;;;;5.75;4.65;;;;;;;36.87;33.57;99793.75;5051102;28;20487;-89
2022/07/02 09:29:06;;;;;;;7.57;6.38;;;;;;;36.73;30.06;99795.47;5050993;28;20457;-89
2022/07/02 09:31:32;;;;;;;6.82;5.22;;;;;;;36.92;30.66;99783.03;5052174;28;20120;-88
2022/07/02 09:33:59;;;;;;;5.00;3.97;;;;;;;37.74;29.41;99811.25;5050734;28;20033;-91
2022/07/02 09:36:25;;;;;;;5.63;3.97;;;;;;;37.58;30.94;99812.34;5051476;28;20036;-93
2022/07/02 09:38:53;;;;;;;4.60;3.42;;;;;;;36.80;30.44;99799.19;5033641;28;20056;-91
2022/07/02 09:41:26;;;;;;;5.78;3.70;;;;;;;36.87;30.74;99799.25;5033493;28;20041;-89
2022/07/02 09:43:59;;;;;;;5.28;3.42;;;;;;;36.82;29.83;99794.34;5051481;28;20032;-90
2022/07/02 09:46:25;;;;;;;5.28;4.35;;;;;;;37.09;30.40;99817.53;5046468;28;20029;-92
2022/07/02 09:48:51;;;;;;;4.32;3.40;;;;;;;36.55;30.05;99823.34;5033674;28;20529;-91
2022/07/02 09:51:18;;;;;;;6.22;4.78;;;;;;;37.11;29.86;99792.59;5050195;28;20163;-91
2022/07/02 09:53:54;;;;;;;3.95;3.13;;;;;;;37.76;28.80;99806.44;5051269;28;20032;-92
2022/07/02 09:56:21;;;;;;;8.93;4.28;;;;;;;37.42;28.30;99773.06;5050682;28;20036;-88
2022/07/02 09:58:48;;;;;;;4.85;3.40;;;;;;;37.63;29.83;99798.84;5051417;28;20155;-90
2022/07/02 10:01:19;;;;;;;5.18;3.58;;;;;;;36.93;30.48;99771.00;5032464;28;20033;-92
2022/07/02 10:03:50;;;;;;;4.80;2.67;;;;;;;37.04;29.96;99808.97;5032462;28;20039;-90
2022/07/02 10:06:15;;;;;;;4.85;4.03;;;;;;;36.51;31.48;99787.13;5051261;28;20547;-91
2022/07/02 10:08:42;;;;;;;4.88;4.03;;;;;;;36.58;31.59;99775.38;5051145;28;20064;-90
2022/07/02 10:11:10;;;;;;;9.32;5.13;;;;;;;36.49;31.75;99791.13;5051547;28;20402;-92
2022/07/02 10:13:38;;;;;;;4.45;3.03;;;;;;;36.94;29.68;99788.34;5050142;28;20043;-90
2022/07/02 10:16:12;;;;;;;6.72;3.03;;;;;;;37.03;29.46;99773.44;5032009;28;20025;-90
2022/07/02 10:18:40;;;;;;;4.57;3.58;;;;;;;36.90;28.89;99763.16;5050083;28;20384;-94
2022/07/02 10:21:07;;;;;;;5.07;3.22;;;;;;;37.40;29.33;99782.53;5029180;28;20041;-91
2022/07/02 10:23:33;;;;;;;3.35;2.50;;;;;;;37.34;29.48;99755.81;5029746;28;20034;-92
2022/07/02 10:25:59;;;;;;;4.20;3.00;;;;;;;36.40;29.55;99771.16;5029959;28;20044;-92
2022/07/02 10:28:26;;;;;;;7.15;3.58;;;;;;;36.17;31.61;99769.28;5013730;28;20042;-95
2022/07/02 10:30:56;;;;;;;3.95;2.47;;;;;;;35.91;30.72;99788.09;5014048;28;20037;-91
2022/07/02 10:33:24;;;;;;;3.88;2.25;;;;;;;35.78;30.25;99794.22;5032229;28;20064;-89
2022/07/02 10:35:51;;;;;;;6.07;3.55;;;;;;;35.76;31.39;99788.00;5028729;28;20037;-95
2022/07/02 10:38:28;;;;;;;4.68;3.05;;;;;;;35.90;30.63;99784.50;5033930;28;20029;-94
2022/07/02 10:40:53;;;;;;;3.58;2.50;;;;;;;36.46;30.45;99772.28;5050857;28;20111;-89
2022/07/02 10:43:20;;;;;;;3.55;2.70;;;;;;;35.83;31.33;99764.31;5050973;28;20575;-95
2022/07/02 10:45:48;;;;;;;3.92;2.65;;;;;;;35.97;29.87;99792.84;5016628;28;20040;-93
2022/07/02 10:48:14;;;;;;;4.10;3.28;;;;;;;36.16;30.61;99758.50;5051334;28;20029;-94
2022/07/02 10:50:42;;;;;;;5.35;3.25;;;;;;;36.69;30.28;99785.91;5031923;28;20124;-92
2022/07/02 10:53:17;;;;;;;4.55;3.10;;;;;;;36.78;30.44;99782.06;5050859;28;20083;-92
2022/07/02 10:56:06;;;;;;;4.50;3.13;;;;;;;36.08;30.58;99747.63;5032833;28;20045;-90
2022/07/02 10:58:36;;;;;;;4.55;2.45;;;;;;;35.38;31.87;99755.94;5032624;28;20037;-92
2022/07/02 11:01:22;;;;;;;3.92;2.50;;;;;;;35.45;32.19;99767.00;5050688;28;20029;-91
2022/07/02 11:04:00;;;;;;;3.65;2.72;;;;;;;35.72;31.51;99775.72;5030711;28;20071;-87
2022/07/02 11:06:27;;;;;;;4.13;3.10;;;;;;;35.83;30.89;99781.63;5032819;28;20499;-95
2022/07/02 11:09:00;;;;;;;4.40;3.00;;;;;;;36.52;30.63;99761.38;5050559;28;20132;-92
2022/07/02 11:11:35;;;;;;;4.72;2.80;;;;;;;36.68;30.00;99778.72;5033012;28;20124;-94
2022/07/02 11:14:11;;;;;;;4.50;2.30;;;;;;;36.64;31.35;99753.53;5029189;28;20140;-93
2022/07/02 11:16:40;;;;;;;3.78;2.67;;;;;;;36.78;28.50;99762.81;5029453;28;20037;-92
2022/07/02 11:19:12;;;;;;;5.15;2.95;;;;;;;36.87;32.45;99747.91;5030654;28;20033;-89
2022/07/02 11:21:39;;;;;;;4.82;3.03;;;;;;;36.74;29.82;99726.63;5029251;28;20124;-91
2022/07/02 11:24:05;;;;;;;3.60;2.25;;;;;;;35.97;31.29;99757.16;5031467;28;20040;-95
2022/07/02 11:26:31;;;;;;;5.57;3.03;;;;;;;36.27;32.99;99760.84;5029735;28;20508;-93
2022/07/02 11:29:03;;;;;;;3.45;2.08;;;;;;;36.40;30.99;99718.13;5030776;28;20037;-91
2022/07/02 11:31:30;;;;;;;7.15;3.60;;;;;;;36.55;30.93;99743.69;5029238;28;20064;-94
2022/07/02 11:33:56;;;;;;;4.10;2.90;;;;;;;36.21;30.96;99761.56;5029164;28;20033;-91
2022/07/02 11:36:24;;;;;;;3.17;2.20;;;;;;;36.59;31.36;99758.72;5031763;28;20076;-93